createdAt,value
2022-10-11T00:02:17.133Z,62.31
2022-10-11T00:04:43.774Z,62.55
2022-10-11T00:07:11.043Z,62.45
2022-10-11T00:09:37.891Z,62.71
2022-10-11T00:12:04.779Z,61.57
2022-10-11T00:14:32.235Z,60.44
2022-10-11T00:16:59.051Z,60.94
2022-10-11T00:19:25.753Z,59.98
2022-10-11T00:21:52.325Z,60.21
2022-10-11T00:24:19.321Z,60.61
2022-10-11T00:26:47.095Z,59.97
2022-10-11T00:29:14.213Z,60.15
2022-10-11T00:31:41.126Z,59.95
2022-10-11T00:34:08.480Z,59.78
2022-10-11T00:36:35.146Z,58.97
2022-10-11T00:41:32.282Z,60.03
2022-10-11T00:44:02.652Z,59.77
2022-10-11T00:46:29.218Z,60.78
2022-10-11T00:48:56.579Z,61.31
2022-10-11T00:51:23.083Z,61.58
2022-10-11T00:53:50.977Z,61.87
2022-10-11T00:56:17.929Z,62.52
2022-10-11T00:58:44.547Z,63.90
2022-10-11T01:01:11.450Z,64.64
2022-10-11T01:03:38.254Z,65.51
2022-10-11T01:06:05.471Z,66.05
2022-10-11T01:08:32.445Z,65.22
2022-10-11T01:10:59.343Z,64.59
2022-10-11T01:13:26.033Z,62.45
2022-10-11T01:15:53.465Z,63.53
2022-10-11T01:18:20.904Z,63.86
2022-10-11T01:20:47.696Z,63.30
2022-10-11T01:23:14.628Z,63.62
2022-10-11T01:25:41.570Z,63.25
2022-10-11T01:28:08.349Z,62.73
2022-10-11T01:30:35.021Z,62.07
2022-10-11T01:33:02.455Z,61.70
2022-10-11T01:35:29.645Z,62.33
2022-10-11T01:37:57.019Z,61.69
2022-10-11T01:40:23.786Z,62.21
2022-10-11T01:42:54.040Z,61.64
2022-10-11T01:45:27.036Z,60.81
2022-10-11T01:47:55.157Z,58.94
2022-10-11T01:50:25.223Z,63.20
2022-10-11T01:52:53.541Z,65.77
2022-10-11T01:55:20.545Z,65.28
2022-10-11T01:57:47.750Z,63.52
2022-10-11T02:03:24.696Z,63.97
2022-10-11T02:05:51.600Z,63.73
2022-10-11T02:08:20.013Z,63.70
2022-10-11T02:10:46.523Z,65.07
2022-10-11T02:13:13.529Z,62.84
2022-10-11T02:15:40.219Z,62.26
2022-10-11T02:18:07.386Z,64.84
2022-10-11T02:20:34.961Z,66.12
2022-10-11T02:23:01.715Z,63.15
2022-10-11T02:25:28.606Z,60.80
2022-10-11T02:27:55.387Z,60.05
2022-10-11T02:30:22.416Z,59.59
2022-10-11T02:32:49.333Z,59.23
2022-10-11T02:35:16.552Z,59.00
2022-10-11T02:37:43.398Z,57.72
2022-10-11T02:40:10.476Z,57.38
2022-10-11T02:42:37.500Z,58.60
2022-10-11T02:45:05.274Z,59.17
2022-10-11T02:47:32.358Z,58.49
2022-10-11T02:49:59.193Z,58.19
2022-10-11T02:52:27.614Z,59.54
2022-10-11T02:54:54.310Z,59.08
2022-10-11T02:57:21.035Z,58.54
2022-10-11T02:59:48.677Z,57.81
2022-10-11T03:02:15.269Z,59.02
2022-10-11T03:04:42.142Z,59.48
2022-10-11T03:07:10.298Z,60.02
2022-10-11T03:09:37.347Z,59.38
2022-10-11T03:12:06.152Z,59.80
2022-10-11T03:14:33.801Z,59.27
2022-10-11T03:17:17.213Z,60.43
2022-10-11T03:19:48.389Z,60.87
2022-10-11T03:22:15.189Z,61.12
2022-10-11T03:24:43.014Z,60.11
2022-10-11T03:27:10.261Z,59.66
2022-10-11T03:29:39.413Z,58.87
2022-10-11T03:32:06.176Z,58.45
2022-10-11T03:34:32.833Z,59.39
2022-10-11T03:36:59.746Z,58.74
2022-10-11T03:39:26.290Z,58.96
2022-10-11T03:41:54.742Z,58.40
2022-10-11T03:44:21.271Z,57.86
2022-10-11T03:46:52.465Z,57.40
2022-10-11T03:49:21.035Z,57.79
2022-10-11T03:51:48.352Z,57.35
2022-10-11T03:54:16.271Z,56.13
2022-10-11T03:56:43.097Z,56.91
2022-10-11T03:59:09.767Z,57.29
2022-10-11T04:01:38.068Z,57.86
2022-10-11T04:04:05.052Z,57.70
2022-10-11T04:06:33.966Z,58.87
2022-10-11T04:09:01.439Z,57.87
2022-10-11T04:11:29.126Z,57.34
2022-10-11T04:13:55.646Z,57.50
2022-10-11T04:16:22.245Z,57.92
2022-10-11T04:18:49.183Z,56.77
2022-10-11T04:21:16.164Z,57.31
2022-10-11T04:23:42.984Z,56.88
2022-10-11T04:26:10.054Z,57.65
2022-10-11T04:28:37.804Z,59.78
2022-10-11T04:31:08.334Z,59.04
2022-10-11T04:33:35.077Z,59.30
2022-10-11T04:36:03.998Z,59.09
2022-10-11T04:38:31.082Z,59.97
2022-10-11T04:40:57.671Z,59.92
2022-10-11T04:43:24.286Z,58.77
2022-10-11T04:45:55.505Z,61.03
2022-10-11T04:48:26.286Z,60.89
2022-10-11T04:50:52.971Z,60.53
2022-10-11T04:53:20.673Z,60.77
2022-10-11T04:55:47.310Z,60.58
2022-10-11T04:58:14.448Z,60.46
2022-10-11T05:00:42.149Z,60.79
2022-10-11T05:03:09.694Z,62.18
2022-10-11T05:05:39.393Z,62.63
2022-10-11T05:08:06.167Z,62.15
2022-10-11T05:10:33.762Z,60.25
2022-10-11T05:13:01.634Z,60.03
2022-10-11T05:15:30.009Z,59.76
2022-10-11T05:18:03.757Z,59.71
2022-10-11T05:20:31.734Z,58.81
2022-10-11T05:22:59.240Z,58.30
2022-10-11T05:25:28.564Z,59.45
2022-10-11T05:27:56.248Z,61.14
2022-10-11T05:30:23.044Z,59.85
2022-10-11T05:32:57.325Z,58.96
2022-10-11T05:35:24.016Z,61.35
2022-10-11T05:37:52.035Z,61.18
2022-10-11T05:40:20.987Z,61.98
2022-10-11T05:42:47.497Z,62.01
2022-10-11T05:45:15.004Z,59.71
2022-10-11T05:47:42.085Z,58.95
2022-10-11T05:50:11.180Z,58.73
2022-10-11T05:52:37.689Z,58.21
2022-10-11T05:55:04.971Z,58.90
2022-10-11T05:57:31.786Z,60.09
2022-10-11T05:59:58.480Z,61.04
2022-10-11T06:02:25.257Z,60.84
2022-10-11T06:04:52.277Z,60.70
2022-10-11T06:07:18.960Z,60.94
2022-10-11T06:09:46.229Z,60.35
2022-10-11T06:12:12.812Z,60.30
2022-10-11T06:14:40.865Z,60.00
2022-10-11T06:17:07.661Z,59.65
2022-10-11T06:19:35.127Z,60.26
2022-10-11T06:22:02.556Z,60.33
2022-10-11T06:24:33.958Z,60.77
2022-10-11T06:27:02.323Z,61.35
2022-10-11T06:29:28.761Z,61.25
2022-10-11T06:31:57.336Z,61.23
2022-10-11T06:34:24.135Z,59.73
2022-10-11T06:36:50.901Z,60.17
2022-10-11T06:39:17.499Z,60.73
2022-10-11T06:41:44.338Z,60.78
2022-10-11T06:44:14.132Z,61.80
2022-10-11T06:46:41.659Z,61.91
2022-10-11T06:49:10.469Z,61.26
2022-10-11T06:51:36.922Z,61.00
2022-10-11T06:54:03.740Z,61.50
2022-10-11T06:56:31.035Z,62.24
2022-10-11T06:58:58.437Z,61.57
2022-10-11T07:01:27.893Z,60.54
2022-10-11T07:03:55.335Z,59.77
2022-10-11T07:06:22.117Z,60.05
2022-10-11T07:08:50.829Z,60.19
2022-10-11T07:11:18.503Z,59.40
2022-10-11T07:13:45.785Z,59.55
2022-10-11T07:16:17.314Z,60.00
2022-10-11T07:18:46.177Z,60.14
2022-10-11T07:21:13.141Z,58.60
2022-10-11T07:23:40.439Z,58.44
2022-10-11T07:26:09.662Z,59.13
2022-10-11T07:28:37.598Z,59.24
2022-10-11T07:31:04.271Z,58.26
2022-10-11T07:33:30.958Z,58.03
2022-10-11T07:35:58.365Z,57.52
2022-10-11T07:38:29.172Z,57.30
2022-10-11T07:40:57.748Z,57.83
2022-10-11T07:43:26.722Z,58.15
2022-10-11T07:45:53.787Z,57.88
2022-10-11T07:48:21.200Z,58.64
2022-10-11T07:50:48.495Z,57.42
2022-10-11T07:53:15.257Z,57.61
2022-10-11T07:55:43.088Z,57.35
2022-10-11T07:58:09.977Z,57.47
2022-10-11T08:00:40.898Z,58.71
2022-10-11T08:03:10.119Z,56.67
2022-10-11T08:05:38.568Z,56.62
2022-10-11T08:08:05.279Z,56.67
2022-10-11T08:10:31.825Z,56.06
2022-10-11T08:13:03.394Z,55.79
2022-10-11T08:15:31.684Z,55.33
2022-10-11T08:17:58.613Z,55.20
2022-10-11T08:20:25.946Z,54.57
2022-10-11T08:22:53.286Z,54.11
2022-10-11T08:25:28.092Z,54.24
2022-10-11T08:27:58.229Z,53.66
2022-10-11T08:30:26.457Z,53.72
2022-10-11T08:32:54.265Z,54.34
2022-10-11T08:35:21.477Z,54.35
2022-10-11T08:37:48.388Z,55.70
2022-10-11T08:40:15.206Z,54.36
2022-10-11T08:42:42.094Z,54.75
2022-10-11T08:47:50.458Z,54.28
2022-10-11T08:50:17.766Z,54.56
2022-10-11T08:52:44.914Z,53.99
2022-10-11T08:55:12.657Z,55.09
2022-10-11T09:03:45.474Z,54.91
2022-10-11T09:06:17.260Z,55.11
2022-10-11T09:08:44.096Z,54.70
2022-10-11T09:11:25.241Z,54.84
2022-10-11T09:16:42.187Z,54.46
2022-10-11T09:19:11.168Z,53.70
2022-10-11T09:21:41.229Z,54.21
2022-10-11T09:24:09.619Z,53.90
2022-10-11T09:26:38.375Z,54.19
2022-10-11T09:29:05.418Z,54.05
2022-10-11T09:31:32.272Z,54.81
2022-10-11T09:33:59.714Z,55.28
2022-10-11T09:36:26.585Z,55.57
2022-10-11T09:38:53.234Z,55.27
2022-10-11T09:41:21.628Z,55.84
2022-10-11T09:43:48.405Z,57.09
2022-10-11T09:46:15.820Z,56.44
2022-10-11T09:48:42.788Z,57.47
2022-10-11T09:51:12.434Z,55.86
2022-10-11T09:53:39.580Z,55.89
2022-10-11T09:56:07.856Z,54.49
2022-10-11T09:58:35.097Z,54.16
2022-10-11T10:01:07.664Z,55.57
2022-10-11T10:03:35.945Z,55.77
2022-10-11T10:06:02.853Z,54.92
2022-10-11T10:08:29.983Z,55.49
2022-10-11T10:10:59.416Z,55.02
2022-10-11T10:13:26.724Z,54.45
2022-10-11T10:15:55.713Z,53.92
2022-10-11T10:18:24.723Z,57.67
2022-10-11T10:20:52.564Z,56.84
2022-10-11T10:23:20.896Z,55.52
2022-10-11T10:25:47.580Z,55.56
2022-10-11T10:28:18.587Z,56.01
2022-10-11T10:30:45.835Z,54.40
2022-10-11T10:33:13.378Z,54.87
2022-10-11T10:35:41.171Z,54.00
2022-10-11T10:38:10.517Z,54.25
2022-10-11T10:40:37.065Z,53.82
2022-10-11T10:43:05.021Z,53.40
2022-10-11T10:45:39.064Z,54.53
2022-10-11T10:48:06.779Z,53.48
2022-10-11T10:50:33.909Z,52.21
2022-10-11T10:53:03.017Z,52.41
2022-10-11T10:55:30.841Z,52.55
2022-10-11T10:58:00.354Z,53.08
2022-10-11T11:00:27.194Z,54.23
2022-10-11T11:02:59.384Z,53.68
2022-10-11T11:05:27.115Z,53.91
2022-10-11T11:07:54.033Z,53.21
2022-10-11T11:10:20.784Z,53.65
2022-10-11T11:12:50.082Z,53.61
2022-10-11T11:15:19.604Z,52.47
2022-10-11T11:17:47.287Z,51.82
2022-10-11T11:23:27.760Z,52.64
2022-10-11T11:25:54.461Z,50.79
2022-10-11T11:28:21.423Z,49.29
2022-10-11T11:30:52.345Z,51.15
2022-10-11T11:33:19.101Z,52.39
2022-10-11T11:35:47.815Z,50.70
2022-10-11T11:38:14.582Z,50.66
2022-10-11T11:40:43.602Z,51.35
2022-10-11T11:45:51.710Z,51.67
2022-10-11T11:48:18.607Z,50.19
2022-10-11T11:50:45.825Z,51.93
2022-10-11T11:53:14.131Z,51.16
2022-10-11T11:55:42.864Z,50.09
2022-10-11T11:58:13.159Z,49.42
2022-10-11T12:00:41.973Z,49.75
2022-10-11T12:03:13.382Z,49.86
2022-10-11T12:05:43.184Z,48.86
2022-10-11T12:08:13.757Z,49.98
2022-10-11T12:10:40.704Z,48.66
2022-10-11T12:19:23.722Z,49.58
2022-10-11T12:21:53.376Z,49.83
2022-10-11T12:24:23.340Z,48.59
2022-10-11T12:26:54.130Z,49.16
2022-10-11T12:29:27.482Z,48.95
2022-10-11T12:31:59.091Z,48.99
2022-10-11T12:34:25.598Z,50.28
2022-10-11T12:36:52.136Z,48.99
2022-10-11T12:39:18.731Z,49.37
2022-10-11T12:41:45.472Z,48.75
2022-10-11T12:44:11.913Z,48.39
2022-10-11T12:46:38.625Z,48.22
2022-10-11T12:49:05.177Z,47.69
2022-10-11T12:51:32.057Z,47.61
2022-10-11T12:54:25.359Z,48.07
2022-10-11T13:06:14.182Z,50.39
2022-10-11T13:08:41.102Z,50.91
2022-10-11T13:11:09.041Z,49.48
2022-10-11T13:13:38.889Z,49.20
2022-10-11T13:16:06.360Z,49.21
2022-10-11T13:18:36.760Z,48.81
2022-10-11T13:21:03.390Z,49.88
2022-10-11T13:23:31.209Z,48.80
2022-10-11T13:25:57.970Z,48.92
2022-10-11T13:28:25.232Z,49.46
2022-10-11T13:30:52.104Z,48.44
2022-10-11T13:33:19.814Z,48.38
2022-10-11T13:35:48.640Z,48.86
2022-10-11T13:38:17.514Z,48.03
2022-10-11T13:40:50.058Z,49.20
2022-10-11T13:43:19.532Z,49.25
2022-10-11T13:45:46.938Z,48.92
2022-10-11T13:48:15.859Z,48.71
2022-10-11T13:50:42.807Z,49.33
2022-10-11T13:53:10.468Z,49.04
2022-10-11T13:55:36.965Z,50.08
2022-10-11T13:58:08.547Z,49.18
2022-10-11T14:00:35.678Z,49.23
2022-10-11T14:03:04.269Z,49.96
2022-10-11T14:05:32.605Z,49.90
2022-10-11T14:08:00.864Z,49.30
2022-10-11T14:10:29.435Z,50.04
2022-10-11T14:12:56.971Z,49.15
2022-10-11T14:15:24.072Z,49.22
2022-10-11T14:17:50.799Z,49.33
2022-10-11T14:20:18.355Z,49.97
2022-10-11T14:22:47.880Z,49.66
2022-10-11T14:25:14.772Z,50.37
2022-10-11T14:27:43.627Z,51.02
2022-10-11T14:30:25.229Z,50.33
2022-10-11T14:33:00.496Z,50.22
2022-10-11T14:35:27.682Z,49.96
2022-10-11T14:37:54.407Z,50.75
2022-10-11T14:40:24.255Z,51.82
2022-10-11T14:42:51.006Z,51.13
2022-10-11T14:45:17.731Z,50.04
2022-10-11T14:47:44.277Z,50.48
2022-10-11T14:50:11.163Z,50.70
2022-10-11T14:52:38.172Z,50.34
2022-10-11T14:55:06.835Z,49.90
2022-10-11T14:57:40.980Z,48.79
2022-10-11T15:00:09.362Z,49.02
2022-10-11T15:02:47.479Z,49.19
2022-10-11T15:05:14.457Z,49.21
2022-10-11T15:07:44.353Z,49.00
2022-10-11T15:10:15.233Z,48.44
2022-10-11T15:12:46.608Z,49.53
2022-10-11T15:15:18.975Z,49.79
2022-10-11T15:17:48.085Z,50.30
2022-10-11T15:20:22.159Z,49.92
2022-10-11T15:22:49.055Z,49.88
2022-10-11T15:25:18.913Z,50.07
2022-10-11T15:27:45.461Z,50.23
2022-10-11T15:30:13.341Z,50.36
2022-10-11T15:32:52.412Z,50.23
2022-10-11T15:35:19.839Z,49.66
2022-10-11T15:37:46.805Z,49.88
2022-10-11T15:40:14.250Z,50.26
2022-10-11T15:42:40.916Z,50.66
2022-10-11T15:45:07.431Z,50.51
2022-10-11T15:47:34.291Z,50.04
2022-10-11T15:53:12.200Z,48.65
2022-10-11T15:55:41.704Z,48.75
2022-10-11T15:58:08.334Z,48.86
2022-10-11T16:00:35.944Z,51.26
2022-10-11T16:03:03.262Z,51.72
2022-10-11T16:05:32.896Z,51.48
2022-10-11T16:07:59.811Z,50.53
2022-10-11T16:10:26.439Z,50.32
2022-10-11T16:12:53.873Z,50.04
2022-10-11T16:15:20.629Z,49.66
2022-10-11T16:17:47.606Z,49.92
2022-10-11T16:20:16.055Z,49.37
2022-10-11T16:22:42.938Z,49.41
2022-10-11T16:25:10.262Z,49.78
2022-10-11T16:27:36.938Z,49.60
2022-10-11T16:30:03.672Z,50.25
2022-10-11T16:32:33.034Z,50.58
2022-10-11T16:35:01.029Z,50.50
2022-10-11T16:37:32.129Z,51.06
2022-10-11T16:39:59.181Z,51.30
2022-10-11T16:42:27.236Z,52.38
2022-10-11T16:47:44.078Z,51.16
2022-10-11T16:50:12.251Z,50.83
2022-10-11T16:52:38.910Z,51.16
2022-10-11T16:55:05.562Z,52.24
2022-10-11T16:57:32.368Z,52.33
2022-10-11T16:59:59.740Z,52.06
2022-10-11T17:02:32.342Z,53.85
2022-10-11T17:04:59.334Z,52.50
2022-10-11T17:07:26.736Z,52.74
2022-10-11T17:09:53.617Z,55.04
2022-10-11T17:12:21.027Z,57.12
2022-10-11T17:14:48.203Z,58.85
2022-10-11T17:17:14.967Z,58.21
2022-10-11T17:19:45.568Z,58.24
2022-10-11T17:22:12.480Z,58.12
2022-10-11T17:24:49.800Z,58.38
2022-10-11T17:27:16.695Z,58.38
2022-10-11T17:29:43.653Z,55.27
2022-10-11T17:32:10.456Z,54.07
2022-10-11T17:34:37.274Z,53.79
2022-10-11T17:37:04.186Z,52.53
2022-10-11T17:39:32.694Z,53.07
2022-10-11T17:42:06.649Z,54.66
2022-10-11T17:44:33.961Z,59.34
2022-10-11T17:56:51.503Z,60.14
2022-10-11T18:21:34.042Z,56.79
2022-10-11T18:24:01.730Z,57.43
2022-10-11T18:26:30.946Z,57.01
2022-10-11T18:28:57.697Z,57.29
2022-10-11T18:31:24.317Z,57.08
2022-10-11T18:33:50.924Z,57.27
2022-10-11T18:36:17.507Z,56.64
2022-10-11T18:38:44.452Z,57.92
2022-10-11T19:51:10.619Z,56.22
2022-10-11T19:56:18.028Z,56.32
2022-10-11T19:58:45.547Z,57.80
2022-10-11T20:01:13.363Z,56.05
2022-10-11T20:03:41.486Z,56.71
2022-10-11T20:06:13.442Z,58.52
2022-10-11T20:08:41.917Z,59.27
2022-10-11T20:11:11.375Z,57.37
2022-10-11T20:13:41.720Z,57.20
2022-10-11T20:16:20.927Z,59.16
2022-10-11T20:19:11.172Z,60.16
2022-10-11T20:24:47.010Z,62.60
2022-10-11T20:27:16.682Z,62.32
2022-10-11T20:29:51.899Z,63.07
2022-10-11T22:16:34.368Z,63.66
2022-10-11T22:19:06.569Z,61.99
2022-10-11T22:21:45.082Z,59.98
2022-10-11T22:24:29.423Z,61.00
2022-10-11T22:26:56.364Z,60.33
2022-10-11T22:29:30.516Z,59.09
2022-10-11T22:32:02.390Z,58.15
2022-10-11T22:34:34.439Z,57.80
2022-10-11T22:37:11.123Z,58.48
2022-10-11T22:39:39.398Z,58.47
2022-10-11T22:42:17.031Z,59.13
2022-10-11T22:44:43.683Z,60.97
2022-10-11T22:47:10.400Z,60.39
2022-10-11T22:49:37.306Z,59.75
2022-10-11T22:52:04.602Z,62.42
2022-10-11T22:54:31.465Z,64.50
2022-10-11T22:56:58.897Z,63.72
2022-10-11T22:59:25.394Z,62.97
2022-10-11T23:01:59.591Z,63.31
2022-10-11T23:04:26.694Z,62.67
2022-10-11T23:06:54.152Z,61.83
2022-10-11T23:09:21.623Z,61.24
2022-10-11T23:11:49.305Z,62.22
2022-10-11T23:14:15.913Z,63.16
2022-10-11T23:16:45.443Z,62.71
2022-10-11T23:19:12.272Z,63.00
2022-10-11T23:21:39.187Z,63.14
2022-10-11T23:24:13.265Z,64.40
2022-10-11T23:26:40.614Z,63.58
2022-10-11T23:29:07.289Z,64.67
2022-10-11T23:31:33.749Z,66.27
2022-10-11T23:34:01.309Z,64.99
2022-10-11T23:36:28.125Z,64.57
2022-10-11T23:38:54.797Z,64.63
2022-10-11T23:41:23.916Z,64.15
2022-10-11T23:43:50.789Z,63.74
2022-10-11T23:46:17.795Z,61.88
2022-10-11T23:48:44.720Z,63.28
2022-10-11T23:51:12.071Z,63.96
2022-10-11T23:53:38.732Z,64.06
2022-10-11T23:56:06.127Z,63.82
2022-10-11T23:58:32.923Z,64.67
